Time;durP1;ratioP1;P1;durP2;ratioP2;P2;SDS_P1;SDS_P2;PMS_P1;PMS_P2;Temp;Humidity;BMP_temperature;BMP_pressure;BME280_temperature;BME280_humidity;BME280_pressure;Samples;Min_cycle;Max_cycle;Signal;HPM_P1;HPM_P2
2023/01/03 00:01:47;;;;;;;2.22;0.20;;;20.00;52.20;;;;;;5045755;28;20037;-50
2023/01/03 00:04:14;;;;;;;0.82;0.20;;;19.90;52.10;;;;;;5045816;28;20136;-49
2023/01/03 00:06:44;;;;;;;3.42;0.17;;;19.90;52.10;;;;;;5045836;28;20046;-52
2023/01/03 00:09:13;;;;;;;2.67;0.20;;;19.90;52.10;;;;;;5045739;28;20053;-50
2023/01/03 00:14:29;;;;;;;1.55;0.20;;;19.90;52.10;;;;;;5033162;28;20028;-53
2023/01/03 00:16:59;;;;;;;8.23;0.40;;;19.80;52.00;;;;;;5045309;28;20049;-53
2023/01/03 00:19:27;;;;;;;4.18;0.45;;;19.90;52.10;;;;;;5045628;28;20585;-52
2023/01/03 00:21:55;;;;;;;0.77;0.20;;;19.90;52.10;;;;;;5045441;28;20058;-55
2023/01/03 00:24:23;;;;;;;0.20;0.10;;;19.80;52.10;;;;;;5045637;28;20144;-53
2023/01/03 00:26:51;;;;;;;0.52;0.38;;;19.80;52.10;;;;;;5045004;28;20057;-54
2023/01/03 00:29:18;;;;;;;4.25;0.28;;;19.80;52.10;;;;;;5044093;28;20584;-53
2023/01/03 00:31:46;;;;;;;1.38;0.10;;;19.80;52.10;;;;;;5059681;28;20055;-54
2023/01/03 00:34:13;;;;;;;2.00;0.20;;;19.80;52.20;;;;;;5045082;28;20056;-52
2023/01/03 00:36:40;;;;;;;0.63;0.20;;;19.80;52.30;;;;;;5045664;28;20428;-54
2023/01/03 00:39:08;;;;;;;0.93;0.20;;;19.80;52.30;;;;;;5044985;28;20072;-52
2023/01/03 00:41:35;;;;;;;0.50;0.22;;;19.80;52.30;;;;;;5044956;28;20049;-53
2023/01/03 00:44:04;;;;;;;0.40;0.20;;;19.80;52.30;;;;;;5045083;28;20569;-52
2023/01/03 00:46:31;;;;;;;1.27;0.20;;;19.80;52.40;;;;;;5044655;28;20498;-53
2023/01/03 00:48:58;;;;;;;1.95;0.40;;;19.70;52.40;;;;;;5044857;28;20064;-52
2023/01/03 00:51:28;;;;;;;2.40;0.22;;;19.70;52.40;;;;;;5044978;28;20053;-51
2023/01/03 00:53:57;;;;;;;1.05;0.35;;;19.70;52.60;;;;;;5044851;28;20095;-52
2023/01/03 00:56:26;;;;;;;2.25;0.17;;;19.70;52.70;;;;;;5044623;28;20037;-51
2023/01/03 00:58:54;;;;;;;0.70;0.20;;;19.70;52.70;;;;;;5044636;28;20060;-51
2023/01/03 01:01:24;;;;;;;2.60;0.50;;;19.70;52.70;;;;;;5044852;28;20033;-51
2023/01/03 01:03:58;;;;;;;0.82;0.20;;;19.70;52.70;;;;;;5044379;28;20042;-52
2023/01/03 01:06:27;;;;;;;2.95;0.38;;;19.70;52.70;;;;;;5044916;28;20509;-54
2023/01/03 01:08:55;;;;;;;0.73;0.10;;;19.70;52.70;;;;;;5044253;28;20124;-54
2023/01/03 01:11:24;;;;;;;0.20;0.20;;;19.70;52.70;;;;;;5044833;28;20523;-54
2023/01/03 01:13:52;;;;;;;1.38;0.30;;;19.70;52.70;;;;;;5044624;28;20068;-53
2023/01/03 01:16:24;;;;;;;0.93;0.20;;;19.60;52.60;;;;;;5045002;28;20513;-54
2023/01/03 01:18:53;;;;;;;1.08;0.10;;;19.70;52.70;;;;;;5044367;28;20091;-55
2023/01/03 01:21:23;;;;;;;0.20;0.10;;;19.70;52.80;;;;;;5043364;28;20048;-54
2023/01/03 01:23:50;;;;;;;2.92;0.57;;;19.70;52.90;;;;;;5044181;28;20053;-52
2023/01/03 01:26:20;;;;;;;1.65;0.20;;;19.60;52.80;;;;;;5058721;28;20081;-54
2023/01/03 01:28:47;;;;;;;1.17;0.10;;;19.70;52.90;;;;;;5024692;28;20069;-54
2023/01/03 01:31:18;;;;;;;3.50;0.10;;;19.60;52.80;;;;;;5024715;28;20037;-54
2023/01/03 01:33:47;;;;;;;0.75;0.30;;;19.70;52.90;;;;;;5024692;28;20815;-55
2023/01/03 01:36:17;;;;;;;2.55;0.10;;;19.60;52.80;;;;;;5024615;28;20198;-55
2023/01/03 01:38:44;;;;;;;2.30;0.20;;;19.60;52.80;;;;;;5035501;28;20539;-53
2023/01/03 01:41:13;;;;;;;1.05;0.20;;;19.60;53.00;;;;;;5044574;28;20048;-53
2023/01/03 01:46:40;;;;;;;0.82;0.10;;;19.60;53.00;;;;;;5044395;28;20718;-53
2023/01/03 01:49:15;;;;;;;3.42;0.10;;;19.60;53.60;;;;;;5044217;28;20048;-51
2023/01/03 01:51:43;;;;;;;0.20;0.20;;;19.60;53.10;;;;;;5044285;28;20753;-53
2023/01/03 01:54:11;;;;;;;1.65;0.20;;;19.60;53.70;;;;;;5043739;28;20055;-54
2023/01/03 01:56:42;;;;;;;1.65;0.13;;;19.60;53.00;;;;;;5044169;28;20487;-51
2023/01/03 01:59:10;;;;;;;1.95;0.25;;;19.60;53.00;;;;;;5047213;28;20569;-52
2023/01/03 02:01:38;;;;;;;1.80;0.10;;;19.50;53.50;;;;;;5048130;28;20594;-53
2023/01/03 02:04:09;;;;;;;1.88;0.10;;;19.50;52.90;;;;;;5047784;28;20045;-51
2023/01/03 02:06:38;;;;;;;1.65;0.10;;;19.50;53.00;;;;;;5063248;28;20378;-51
2023/01/03 02:09:06;;;;;;;1.25;0.20;;;19.60;53.00;;;;;;5047430;28;20045;-52
2023/01/03 02:11:46;;;;;;;0.43;0.20;;;19.50;52.90;;;;;;5047987;28;20076;-52
2023/01/03 02:14:34;;;;;;;0.13;0.10;;;19.50;52.90;;;;;;5038338;28;20108;-51
2023/01/03 02:17:10;;;;;;;4.15;0.35;;;19.50;52.90;;;;;;5047856;28;20083;-53
2023/01/03 02:20:25;;;;;;;0.20;0.10;;;19.50;53.00;;;;;;5047384;28;20056;-51
2023/01/03 02:23:28;;;;;;;0.10;0.10;;;19.50;52.90;;;;;;5004777;28;20726;-54
2023/01/03 02:26:37;;;;;;;1.75;0.10;;;19.50;52.90;;;;;;5004388;28;20062;-54
2023/01/03 02:29:37;;;;;;;0.75;0.10;;;19.50;52.90;;;;;;4995215;28;20706;-52
2023/01/03 02:32:13;;;;;;;0.20;0.10;;;19.50;53.00;;;;;;5004105;28;20112;-54
2023/01/03 02:34:47;;;;;;;0.68;0.68;;;19.40;53.10;;;;;;5004816;28;20785;-52
2023/01/03 02:37:21;;;;;;;0.50;0.10;;;19.40;53.10;;;;;;5004043;28;20200;-50
2023/01/03 02:39:56;;;;;;;0.15;0.10;;;19.50;53.00;;;;;;5004415;28;20081;-54
2023/01/03 02:45:19;;;;;;;0.85;0.45;;;19.50;53.00;;;;;;5004700;28;20060;-53
2023/01/03 02:47:52;;;;;;;0.13;0.13;;;19.40;52.90;;;;;;5004694;28;20065;-52
2023/01/03 02:50:22;;;;;;;1.17;0.10;;;19.50;53.00;;;;;;5004480;28;20062;-53
2023/01/03 02:52:52;;;;;;;0.50;0.10;;;19.50;52.90;;;;;;5004843;28;20467;-53
2023/01/03 02:55:22;;;;;;;0.20;0.10;;;19.50;52.90;;;;;;5004355;28;20973;-54
2023/01/03 02:57:54;;;;;;;0.10;0.08;;;19.40;52.80;;;;;;5009843;28;20140;-52
2023/01/03 03:00:25;;;;;;;1.35;0.63;;;19.50;52.80;;;;;;5047124;28;20068;-52
2023/01/03 03:02:58;;;;;;;0.17;0.05;;;19.50;52.80;;;;;;5046803;28;20095;-53
2023/01/03 03:05:28;;;;;;;1.50;0.10;;;19.50;52.90;;;;;;5046730;28;20060;-54
2023/01/03 03:07:55;;;;;;;0.85;0.30;;;19.50;53.00;;;;;;5046995;28;20136;-53
2023/01/03 03:13:28;;;;;;;2.45;0.10;;;19.40;52.90;;;;;;4998273;28;20054;-54
2023/01/03 03:16:01;;;;;;;0.73;0.10;;;19.40;53.10;;;;;;4984628;28;20054;-53
2023/01/03 03:18:37;;;;;;;0.10;0.00;;;19.40;53.10;;;;;;4998732;28;20109;-53
2023/01/03 03:26:41;;;;;;;10.77;0.20;;;19.40;53.10;;;;;;5003483;28;20042;-52
2023/01/03 03:29:12;;;;;;;5.72;0.10;;;19.40;53.10;;;;;;4999218;28;20121;-52
2023/01/03 03:31:41;;;;;;;0.85;0.20;;;19.40;53.10;;;;;;4984579;28;20050;-56
2023/01/03 03:34:13;;;;;;;0.75;0.10;;;19.40;53.00;;;;;;4983883;28;20133;-52
2023/01/03 03:36:47;;;;;;;1.35;0.13;;;19.40;53.00;;;;;;4984190;28;20625;-52
2023/01/03 03:45:06;;;;;;;0.40;0.00;;;19.40;52.90;;;;;;5016633;28;20045;-55
2023/01/03 03:47:40;;;;;;;0.65;0.05;;;19.40;52.90;;;;;;5033250;28;20049;-55
2023/01/03 03:50:14;;;;;;;0.47;0.10;;;19.40;53.00;;;;;;5045576;28;20127;-56
2023/01/03 03:52:46;;;;;;;0.50;0.50;;;19.40;53.00;;;;;;5046264;28;20456;-52
2023/01/03 03:55:16;;;;;;;3.65;0.10;;;19.40;53.00;;;;;;5046027;28;20041;-55
2023/01/03 03:57:48;;;;;;;1.38;0.10;;;19.40;53.00;;;;;;5045601;28;20798;-54
2023/01/03 04:00:18;;;;;;;0.35;0.13;;;19.40;53.00;;;;;;5033413;28;20348;-54
2023/01/03 04:02:46;;;;;;;0.85;0.20;;;19.40;53.00;;;;;;5025447;28;20041;-54
2023/01/03 04:05:18;;;;;;;1.38;0.15;;;19.40;53.00;;;;;;5025773;28;20037;-52
2023/01/03 04:07:46;;;;;;;1.35;0.15;;;19.40;53.10;;;;;;5026073;28;20049;-54
2023/01/03 04:10:18;;;;;;;1.20;0.10;;;19.40;53.70;;;;;;5034291;28;20049;-52
2023/01/03 04:12:47;;;;;;;2.17;0.93;;;19.40;53.20;;;;;;5045326;28;20418;-54
2023/01/03 04:15:14;;;;;;;2.53;0.20;;;19.40;53.30;;;;;;5045564;28;20040;-55
2023/01/03 04:17:41;;;;;;;1.75;0.10;;;19.40;53.90;;;;;;5059823;28;20041;-55
2023/01/03 04:20:10;;;;;;;1.50;0.10;;;19.40;53.30;;;;;;5045154;28;20045;-54
2023/01/03 04:22:38;;;;;;;2.10;0.10;;;19.40;53.40;;;;;;5044527;28;20056;-55
2023/01/03 04:25:06;;;;;;;0.73;0.10;;;19.40;53.30;;;;;;5045281;28;20045;-53
2023/01/03 04:27:33;;;;;;;2.58;0.10;;;19.40;53.40;;;;;;5045213;28;20052;-55
2023/01/03 04:30:00;;;;;;;1.77;0.10;;;19.40;53.40;;;;;;5045205;28;20064;-55
2023/01/03 04:32:27;;;;;;;0.52;0.10;;;19.40;53.40;;;;;;5060431;28;20044;-54
2023/01/03 04:34:54;;;;;;;2.28;0.30;;;19.40;53.50;;;;;;5044936;28;20069;-55
2023/01/03 04:37:22;;;;;;;4.13;0.10;;;19.40;53.40;;;;;;5045510;28;20108;-55
2023/01/03 04:39:50;;;;;;;1.55;0.10;;;19.40;53.50;;;;;;5045166;28;20048;-55
2023/01/03 04:45:01;;;;;;;0.52;0.10;;;19.40;53.50;;;;;;5045451;28;20396;-54
2023/01/03 04:47:28;;;;;;;4.20;0.20;;;19.40;53.70;;;;;;5044277;28;20115;-50
2023/01/03 04:49:55;;;;;;;0.90;0.63;;;19.40;53.70;;;;;;5044639;28;20055;-52
2023/01/03 04:52:22;;;;;;;0.70;0.10;;;19.40;53.70;;;;;;5044918;28;20040;-54
2023/01/03 04:54:51;;;;;;;0.68;0.10;;;19.40;53.60;;;;;;5044953;28;20374;-50
2023/01/03 04:57:18;;;;;;;0.32;0.05;;;19.40;53.60;;;;;;5044731;28;20037;-51
2023/01/03 04:59:45;;;;;;;1.00;0.10;;;19.40;53.50;;;;;;5044701;28;20045;-53
2023/01/03 05:02:12;;;;;;;4.40;0.13;;;19.50;53.60;;;;;;5044545;28;20045;-52
2023/01/03 05:04:39;;;;;;;1.85;0.20;;;19.40;53.50;;;;;;5044963;28;20106;-54
2023/01/03 05:07:07;;;;;;;1.42;0.10;;;19.40;53.50;;;;;;5044730;28;20049;-52
2023/01/03 05:09:35;;;;;;;1.23;0.10;;;19.40;53.50;;;;;;5044781;28;20063;-53
2023/01/03 05:12:03;;;;;;;0.50;0.10;;;19.40;53.40;;;;;;5044676;28;20041;-50
2023/01/03 05:14:30;;;;;;;1.00;0.10;;;19.50;53.40;;;;;;5044709;28;20076;-51
2023/01/03 05:16:57;;;;;;;0.90;0.10;;;19.40;53.30;;;;;;5043956;28;20068;-51
2023/01/03 05:19:25;;;;;;;0.75;0.10;;;19.50;53.40;;;;;;5045122;28;20064;-54
2023/01/03 05:27:19;;;;;;;0.98;0.10;;;19.50;53.40;;;;;;4982897;28;20058;-55
2023/01/03 05:29:49;;;;;;;0.75;0.17;;;19.50;53.40;;;;;;4983138;28;20527;-55
2023/01/03 05:32:16;;;;;;;0.13;0.10;;;19.50;53.40;;;;;;4983197;28;20645;-55
2023/01/03 05:34:43;;;;;;;0.93;0.10;;;19.50;53.40;;;;;;4986211;28;20046;-53
2023/01/03 05:37:10;;;;;;;0.17;0.03;;;19.50;53.40;;;;;;4986811;28;20089;-54
2023/01/03 05:39:37;;;;;;;2.28;0.10;;;19.50;53.30;;;;;;4986276;28;20169;-52
2023/01/03 05:42:05;;;;;;;1.42;0.20;;;19.50;53.30;;;;;;4986577;28;20058;-50
2023/01/03 05:44:35;;;;;;;1.02;0.10;;;19.50;53.30;;;;;;4986085;28;20848;-50
2023/01/03 05:47:04;;;;;;;2.28;0.10;;;19.50;53.20;;;;;;4986373;28;20053;-54
2023/01/03 05:49:32;;;;;;;0.25;0.10;;;19.50;53.20;;;;;;4985994;28;20050;-54
2023/01/03 05:51:59;;;;;;;0.25;0.10;;;19.50;53.20;;;;;;4986229;28;20181;-54
2023/01/03 05:54:26;;;;;;;0.20;0.10;;;19.50;53.10;;;;;;4986567;28;20137;-54
2023/01/03 05:56:53;;;;;;;0.10;0.10;;;19.50;53.20;;;;;;4985870;28;20046;-54
2023/01/03 05:59:21;;;;;;;0.68;0.10;;;19.50;53.10;;;;;;4985625;28;20062;-50
2023/01/03 06:01:50;;;;;;;0.20;0.20;;;19.50;53.10;;;;;;4986281;28;20043;-49
2023/01/03 06:04:17;;;;;;;0.57;0.30;;;19.50;53.10;;;;;;5007439;28;20146;-51
2023/01/03 06:06:44;;;;;;;0.10;0.10;;;19.50;53.10;;;;;;5047922;28;20509;-52
2023/01/03 06:09:12;;;;;;;0.10;0.00;;;19.50;53.10;;;;;;5047968;28;20037;-53
2023/01/03 06:11:39;;;;;;;1.38;0.10;;;19.50;53.10;;;;;;5046825;28;20049;-50
2023/01/03 06:14:07;;;;;;;1.85;0.10;;;19.50;53.70;;;;;;5047375;28;20131;-49
2023/01/03 06:19:20;;;;;;;1.30;1.20;;;19.50;52.90;;;;;;5027843;28;20068;-51
2023/01/03 06:21:47;;;;;;;1.17;0.10;;;19.50;53.00;;;;;;5028070;28;20504;-52
2023/01/03 06:24:14;;;;;;;0.38;0.20;;;19.50;52.90;;;;;;5038747;28;20073;-53
2023/01/03 06:26:41;;;;;;;0.55;0.17;;;19.50;52.90;;;;;;5047418;28;20049;-54
2023/01/03 06:29:08;;;;;;;1.58;0.30;;;19.50;52.90;;;;;;5047234;28;20048;-53
2023/01/03 06:31:36;;;;;;;0.40;0.10;;;19.50;52.90;;;;;;5047442;28;20072;-52
2023/01/03 06:34:03;;;;;;;0.15;0.10;;;19.50;52.90;;;;;;5047154;28;20523;-53
2023/01/03 06:36:35;;;;;;;0.40;0.10;;;19.50;52.90;;;;;;5047369;28;20065;-52
2023/01/03 06:39:02;;;;;;;0.65;0.00;;;19.50;52.80;;;;;;5045658;28;20073;-54
2023/01/03 06:41:29;;;;;;;0.10;0.10;;;19.50;52.80;;;;;;5047324;28;20037;-54
2023/01/03 06:43:57;;;;;;;1.08;0.10;;;19.50;52.80;;;;;;5045736;28;20520;-54
2023/01/03 06:54:46;;;;;;;4.68;0.10;;;19.50;52.70;;;;;;5027174;28;20049;-52
2023/01/03 06:57:13;;;;;;;1.02;0.15;;;19.50;52.70;;;;;;5026960;28;20042;-53
2023/01/03 06:59:40;;;;;;;0.88;0.10;;;19.50;53.20;;;;;;5027168;28;20049;-53
2023/01/03 07:02:07;;;;;;;0.65;0.10;;;19.50;52.60;;;;;;5032973;28;20087;-53
2023/01/03 07:04:34;;;;;;;0.28;0.03;;;19.50;52.60;;;;;;5046936;28;20629;-53
2023/01/03 07:07:03;;;;;;;0.05;0.05;;;19.50;52.50;;;;;;5046639;28;20456;-53
2023/01/03 07:09:30;;;;;;;1.77;0.10;;;19.50;52.50;;;;;;5046363;28;20064;-54
2023/01/03 07:13:57;;;;;;;0.52;0.10;;;19.50;52.50;;;;;;5046266;28;20493;-54
2023/01/03 07:14:46;;;;;;;1.55;0.10;;;19.50;52.50;;;;;;5046678;28;20053;-54
2023/01/03 07:17:15;;;;;;;1.95;0.10;;;19.50;52.50;;;;;;5046165;28;20056;-51
2023/01/03 07:19:42;;;;;;;1.30;0.32;;;19.50;52.50;;;;;;5046168;28;20045;-54
2023/01/03 07:22:10;;;;;;;1.98;0.20;;;19.50;52.40;;;;;;5046611;28;20037;-51
2023/01/03 07:24:37;;;;;;;2.03;0.10;;;19.50;52.40;;;;;;5046573;28;20535;-51
2023/01/03 07:27:04;;;;;;;0.35;0.00;;;19.50;52.40;;;;;;5045863;28;20052;-52
2023/01/03 07:29:31;;;;;;;0.95;0.10;;;19.50;52.40;;;;;;5046400;28;20642;-53
2023/01/03 07:31:58;;;;;;;1.08;0.10;;;19.50;52.40;;;;;;5046102;28;20052;-53
2023/01/03 07:34:26;;;;;;;1.52;0.10;;;19.50;52.30;;;;;;5045878;28;20424;-54
2023/01/03 07:36:53;;;;;;;2.08;0.10;;;19.50;52.40;;;;;;5044005;28;20044;-54
2023/01/03 07:39:21;;;;;;;0.52;0.45;;;19.50;52.40;;;;;;5045793;28;20084;-51
2023/01/03 07:44:33;;;;;;;0.15;0.10;;;19.50;52.40;;;;;;5046175;28;20118;-49
2023/01/03 07:47:00;;;;;;;0.40;0.10;;;19.50;52.40;;;;;;5046256;28;20132;-52
2023/01/03 07:49:27;;;;;;;1.65;0.13;;;19.50;52.40;;;;;;5045824;28;20590;-51
2023/01/03 07:51:54;;;;;;;1.00;0.10;;;19.50;52.40;;;;;;5045896;28;20083;-53
2023/01/03 07:54:22;;;;;;;0.20;0.10;;;19.50;52.40;;;;;;5045818;28;20051;-54
2023/01/03 07:56:49;;;;;;;3.00;0.52;;;19.50;52.30;;;;;;5045345;28;20041;-50
2023/01/03 07:59:16;;;;;;;1.83;0.10;;;19.50;52.30;;;;;;5045399;28;20092;-53
2023/01/03 08:01:43;;;;;;;0.70;0.10;;;19.50;52.20;;;;;;5045563;28;20106;-51
2023/01/03 08:04:10;;;;;;;10.13;0.60;;;19.50;52.20;;;;;;5043874;28;20055;-63
2023/01/03 08:06:37;;;;;;;0.80;0.45;;;19.50;52.10;;;;;;5043195;28;20155;-63
2023/01/03 08:14:35;;;;;;;2.33;0.10;;;19.70;52.60;;;;;;5045154;28;20045;-63
2023/01/03 08:17:02;;;;;;;5.53;0.10;;;19.80;52.50;;;;;;5045039;28;20037;-63
2023/01/03 08:19:29;;;;;;;1.77;0.08;;;19.90;52.40;;;;;;5045162;28;20084;-67
2023/01/03 08:21:57;;;;;;;0.45;0.10;;;19.90;52.30;;;;;;5043604;28;20509;-68
2023/01/03 08:24:24;;;;;;;0.43;0.10;;;20.00;52.20;;;;;;5045381;28;20063;-66
2023/01/03 08:26:53;;;;;;;1.02;0.13;;;20.00;52.00;;;;;;5046143;28;20053;-69
2023/01/03 08:29:20;;;;;;;0.50;0.08;;;20.10;52.00;;;;;;5045452;28;20041;-63
2023/01/03 08:31:52;;;;;;;0.10;0.10;;;20.20;51.90;;;;;;5045106;28;20041;-60
2023/01/03 08:34:20;;;;;;;1.77;0.10;;;20.20;51.80;;;;;;5038533;28;20679;-65
2023/01/03 08:36:51;;;;;;;1.17;0.63;;;20.30;51.70;;;;;;5047372;28;20147;-70
2023/01/03 08:39:23;;;;;;;1.20;0.20;;;20.40;51.60;;;;;;5045611;28;20051;-65
2023/01/03 08:41:57;;;;;;;2.95;0.10;;;20.40;51.40;;;;;;5045020;28;20053;-69
2023/01/03 08:44:25;;;;;;;0.45;0.10;;;20.50;51.30;;;;;;5045070;28;20041;-62
2023/01/03 08:46:55;;;;;;;0.30;0.15;;;20.50;51.10;;;;;;5044520;28;20044;-69
2023/01/03 08:49:22;;;;;;;2.17;0.10;;;20.60;51.00;;;;;;5044123;28;20114;-63
2023/01/03 08:51:49;;;;;;;1.13;0.22;;;20.70;50.90;;;;;;5044977;28;20057;-60
2023/01/03 08:54:16;;;;;;;1.25;0.10;;;20.70;50.80;;;;;;5044497;28;20412;-64
2023/01/03 08:56:43;;;;;;;0.65;0.20;;;20.80;50.70;;;;;;5044961;28;20049;-65
2023/01/03 08:59:12;;;;;;;0.55;0.20;;;20.80;50.60;;;;;;5044912;28;20212;-64
2023/01/03 09:01:40;;;;;;;0.32;0.10;;;20.80;50.50;;;;;;5045096;28;20041;-65
2023/01/03 09:04:07;;;;;;;1.05;0.10;;;20.90;50.50;;;;;;5044529;28;20053;-68
2023/01/03 09:06:34;;;;;;;0.20;0.10;;;20.90;50.40;;;;;;5044936;28;20051;-66
2023/01/03 09:09:04;;;;;;;0.73;0.10;;;20.90;50.30;;;;;;5043891;28;20087;-60
2023/01/03 09:11:32;;;;;;;2.40;0.10;;;20.90;50.20;;;;;;5027015;28;20068;-62
2023/01/03 09:13:59;;;;;;;0.30;0.10;;;21.00;50.10;;;;;;5044669;28;20049;-64
2023/01/03 09:16:28;;;;;;;1.50;0.10;;;21.00;50.00;;;;;;5044535;28;20052;-68
2023/01/03 09:18:55;;;;;;;1.85;0.20;;;21.00;49.90;;;;;;5042821;28;20518;-62
2023/01/03 09:21:22;;;;;;;1.10;0.30;;;21.00;49.80;;;;;;5044474;28;20044;-62
2023/01/03 09:23:49;;;;;;;1.88;0.40;;;21.10;49.80;;;;;;5044128;28;20041;-63
2023/01/03 09:26:16;;;;;;;2.67;0.20;;;21.10;49.70;;;;;;5044177;28;20049;-63
2023/01/03 09:28:43;;;;;;;1.95;0.10;;;21.10;49.60;;;;;;5044669;28;20041;-63
2023/01/03 09:31:10;;;;;;;0.70;0.10;;;21.20;49.50;;;;;;5044277;28;20092;-61
2023/01/03 09:33:39;;;;;;;0.20;0.10;;;21.20;49.40;;;;;;5044229;28;20055;-60
2023/01/03 09:36:06;;;;;;;0.73;0.10;;;21.20;49.30;;;;;;5043617;28;20048;-58
2023/01/03 09:38:33;;;;;;;0.22;0.20;;;21.20;49.40;;;;;;5043723;28;20076;-54
2023/01/03 09:41:04;;;;;;;2.78;0.20;;;21.20;49.30;;;;;;5037969;28;20063;-54
2023/01/03 09:43:39;;;;;;;1.58;0.13;;;21.30;49.20;;;;;;5035595;28;20121;-56
2023/01/03 09:46:12;;;;;;;0.20;0.10;;;21.30;49.00;;;;;;5036515;28;20040;-54
2023/01/03 09:48:41;;;;;;;0.25;0.10;;;21.30;48.90;;;;;;5040765;28;20130;-55
2023/01/03 10:05:55;;;;;;;2.65;0.20;;;21.30;48.60;;;;;;5052306;28;20041;-62
2023/01/03 10:08:34;;;;;;;1.60;0.53;;;21.40;48.80;;;;;;5043786;28;20037;-59
2023/01/03 10:11:07;;;;;;;2.50;0.32;;;21.40;49.00;;;;;;5045814;28;20045;-58
2023/01/03 10:13:48;;;;;;;3.40;0.20;;;21.40;48.90;;;;;;5052888;28;20120;-59
2023/01/03 10:16:23;;;;;;;1.33;0.35;;;21.40;48.80;;;;;;5047502;28;20437;-64
2023/01/03 10:19:16;;;;;;;1.05;0.10;;;21.40;48.90;;;;;;5045913;28;20041;-66
2023/01/03 10:21:50;;;;;;;2.15;0.10;;;21.50;49.60;;;;;;5048783;28;20107;-62
2023/01/03 10:24:22;;;;;;;6.75;0.13;;;21.50;49.00;;;;;;5049512;28;20472;-61
2023/01/03 10:26:51;;;;;;;0.20;0.10;;;21.50;49.10;;;;;;5047768;28;20053;-65
2023/01/03 10:29:19;;;;;;;11.15;0.40;;;21.50;49.10;;;;;;5051143;28;20048;-65
2023/01/03 10:32:03;;;;;;;58.25;25.65;;;21.50;48.90;;;;;;5051510;28;20057;-52
2023/01/03 10:34:30;;;;;;;40.38;17.23;;;21.60;48.10;;;;;;5048900;28;20052;-63
2023/01/03 10:36:58;;;;;;;29.65;13.68;;;21.50;47.10;;;;;;5048004;28;20120;-57
2023/01/03 10:39:31;;;;;;;23.23;10.15;;;21.30;46.10;;;;;;5045310;28;20135;-55
2023/01/03 10:41:59;;;;;;;21.83;9.02;;;21.20;45.50;;;;;;5047700;28;20051;-57
2023/01/03 10:44:29;;;;;;;16.45;7.30;;;21.00;45.40;;;;;;5049298;28;20071;-59
2023/01/03 10:46:58;;;;;;;29.73;7.70;;;20.80;45.30;;;;;;5046314;28;20136;-55
2023/01/03 10:49:28;;;;;;;33.72;11.18;;;20.70;45.20;;;;;;5047396;28;20043;-61
2023/01/03 10:52:01;;;;;;;10.88;4.30;;;20.50;45.10;;;;;;5047988;28;20521;-54
2023/01/03 10:54:46;;;;;;;13.27;3.42;;;20.40;45.20;;;;;;5047895;28;20064;-54
2023/01/03 10:57:35;;;;;;;7.28;2.05;;;20.20;45.30;;;;;;5047756;28;20454;-56
2023/01/03 11:00:22;;;;;;;6.65;1.40;;;20.10;45.40;;;;;;5048087;28;20044;-52
2023/01/03 11:02:49;;;;;;;1.60;0.65;;;19.90;45.40;;;;;;5047396;28;20042;-53
2023/01/03 11:05:18;;;;;;;9.05;1.00;;;19.70;45.60;;;;;;5046670;28;20037;-58
2023/01/03 11:07:54;;;;;;;1.33;0.75;;;19.60;45.80;;;;;;5048282;28;20037;-60
2023/01/03 11:10:21;;;;;;;2.25;0.68;;;19.50;45.80;;;;;;5047702;28;20146;-54
2023/01/03 11:12:48;;;;;;;2.20;0.30;;;19.40;46.00;;;;;;5047844;28;20047;-60
2023/01/03 11:15:17;;;;;;;2.05;0.30;;;19.30;46.10;;;;;;5061778;28;20040;-64
2023/01/03 11:18:03;;;;;;;1.50;0.85;;;19.30;46.30;;;;;;5046955;28;20045;-54
2023/01/03 11:20:39;;;;;;;3.67;0.32;;;19.20;46.30;;;;;;5041291;28;20053;-53
2023/01/03 11:23:14;;;;;;;6.82;0.57;;;19.10;46.40;;;;;;5046710;28;20131;-66
2023/01/03 11:25:50;;;;;;;0.75;0.10;;;19.00;46.50;;;;;;5046511;28;20041;-55
2023/01/03 11:29:03;;;;;;;1.80;0.10;;;18.90;46.50;;;;;;5046553;28;20113;-54
2023/01/03 11:31:39;;;;;;;99.85;11.32;;;18.90;46.50;;;;;;5046704;28;20045;-51
2023/01/03 11:34:20;;;;;;;4.70;0.57;;;18.80;46.70;;;;;;5047555;28;20383;-54
2023/01/03 11:36:52;;;;;;;2.03;0.30;;;18.70;46.60;;;;;;5046295;28;20477;-56
2023/01/03 11:39:38;;;;;;;2.28;1.27;;;18.60;46.80;;;;;;5037097;28;20145;-58
2023/01/03 11:42:22;;;;;;;12.07;0.55;;;18.50;47.50;;;;;;5026738;28;20232;-53
2023/01/03 11:45:17;;;;;;;6.07;1.13;;;18.40;47.60;;;;;;5026214;28;20129;-51
2023/01/03 11:47:54;;;;;;;2.00;0.40;;;18.40;48.10;;;;;;5034795;28;20913;-51
2023/01/03 11:50:27;;;;;;;5.90;1.23;;;18.50;48.50;;;;;;5045426;28;20037;-51
2023/01/03 11:53:01;;;;;;;1.65;0.15;;;18.70;48.80;;;;;;5045500;28;20478;-52
2023/01/03 11:55:55;;;;;;;0.77;0.47;;;18.80;48.80;;;;;;5033369;28;20094;-53
2023/01/03 11:58:47;;;;;;;1.13;0.95;;;18.90;48.70;;;;;;5061434;28;20053;-53
2023/01/03 12:01:27;;;;;;;1.38;0.20;;;19.00;48.80;;;;;;5045479;28;20105;-51
2023/01/03 12:04:08;;;;;;;2.78;1.05;;;19.10;48.90;;;;;;5054741;28;20087;-53
2023/01/03 12:06:41;;;;;;;1.80;0.57;;;19.20;48.80;;;;;;5045722;28;20045;-51
2023/01/03 12:09:19;;;;;;;4.32;0.20;;;19.40;48.80;;;;;;5045646;28;20049;-50
2023/01/03 12:12:02;;;;;;;1.83;0.20;;;19.50;48.60;;;;;;5037177;28;20073;-51
2023/01/03 12:14:35;;;;;;;0.80;0.75;;;19.60;48.60;;;;;;5045586;28;20044;-53
2023/01/03 12:17:09;;;;;;;3.17;0.13;;;19.70;48.50;;;;;;5044173;28;20576;-54
2023/01/03 12:19:42;;;;;;;1.92;0.40;;;19.80;48.40;;;;;;5035370;28;20124;-50
2023/01/03 12:22:18;;;;;;;1.35;0.57;;;19.90;48.30;;;;;;5037138;28;20044;-51
2023/01/03 12:24:49;;;;;;;3.97;0.20;;;19.90;48.80;;;;;;5035286;28;20087;-53
2023/01/03 12:27:24;;;;;;;0.73;0.13;;;20.00;48.20;;;;;;5000628;28;20125;-50
2023/01/03 12:30:00;;;;;;;0.88;0.10;;;20.00;48.00;;;;;;4996318;28;20057;-52
2023/01/03 12:32:33;;;;;;;4.75;0.25;;;20.10;48.00;;;;;;4996568;28;20505;-55
2023/01/03 12:35:17;;;;;;;1.02;0.20;;;20.20;48.00;;;;;;4995752;28;20038;-51
2023/01/03 12:37:47;;;;;;;0.90;0.10;;;20.20;47.90;;;;;;4998334;28;20042;-50
2023/01/03 12:40:21;;;;;;;1.50;0.10;;;20.30;47.90;;;;;;4998330;28;20041;-53
2023/01/03 12:42:59;;;;;;;1.70;0.10;;;20.30;47.80;;;;;;4994895;28;20058;-54
2023/01/03 12:45:38;;;;;;;0.70;0.10;;;20.30;47.70;;;;;;5004570;28;20482;-50
2023/01/03 12:48:14;;;;;;;1.25;0.40;;;20.40;47.60;;;;;;5011182;28;20045;-54
2023/01/03 12:50:45;;;;;;;1.95;0.20;;;20.40;47.50;;;;;;5013520;28;20042;-49
2023/01/03 12:53:18;;;;;;;1.45;0.10;;;20.40;47.50;;;;;;5011540;28;20124;-52
2023/01/03 12:56:03;;;;;;;2.15;0.10;;;20.40;47.60;;;;;;5011905;28;20045;-52
2023/01/03 12:58:42;;;;;;;8.07;0.22;;;20.50;47.60;;;;;;5009459;28;20041;-44
2023/01/03 13:01:14;;;;;;;7.43;0.57;;;20.50;47.70;;;;;;5008237;28;20153;-51
2023/01/03 13:03:45;;;;;;;3.63;0.10;;;20.50;47.50;;;;;;5010503;28;20153;-50
2023/01/03 13:06:17;;;;;;;3.30;0.10;;;20.60;47.40;;;;;;5019368;28;20867;-52
2023/01/03 13:08:49;;;;;;;1.60;0.10;;;20.60;47.20;;;;;;5025349;28;20137;-46
2023/01/03 13:11:21;;;;;;;2.55;0.15;;;20.60;47.20;;;;;;5006501;28;20045;-46
2023/01/03 13:13:54;;;;;;;4.20;0.73;;;20.60;47.10;;;;;;5005150;28;20096;-47
2023/01/03 13:16:45;;;;;;;1.73;0.10;;;20.60;47.00;;;;;;5005339;28;20124;-47
2023/01/03 13:19:55;;;;;;;3.47;0.10;;;20.60;47.00;;;;;;4980473;28;20153;-46
2023/01/03 13:22:46;;;;;;;3.95;0.52;;;20.70;46.90;;;;;;4986006;28;20065;-44
2023/01/03 13:25:40;;;;;;;0.30;0.20;;;20.70;47.00;;;;;;4991570;28;20046;-46
2023/01/03 13:28:33;;;;;;;2.40;0.17;;;20.70;47.00;;;;;;5024909;28;20046;-46
2023/01/03 13:31:36;;;;;;;2.85;0.30;;;20.70;47.00;;;;;;5024928;28;20049;-45
2023/01/03 13:34:18;;;;;;;2.05;0.10;;;20.70;47.10;;;;;;5038053;28;20084;-49
2023/01/03 13:37:16;;;;;;;2.25;0.55;;;20.70;47.00;;;;;;5024822;28;20037;-48
2023/01/03 13:40:23;;;;;;;2.60;0.35;;;20.70;47.00;;;;;;5044237;28;20154;-45
2023/01/03 13:43:02;;;;;;;3.28;0.10;;;20.70;47.00;;;;;;5024526;28;20050;-47
2023/01/03 13:45:58;;;;;;;2.30;0.00;;;20.70;47.10;;;;;;5024768;28;20073;-45
2023/01/03 13:48:39;;;;;;;0.43;0.10;;;20.70;47.20;;;;;;5038851;28;20045;-48
2023/01/03 13:51:39;;;;;;;1.80;0.20;;;20.70;47.20;;;;;;5044576;28;20052;-46
2023/01/03 13:54:34;;;;;;;0.30;0.10;;;20.70;47.30;;;;;;5046249;28;20064;-50
2023/01/03 13:57:21;;;;;;;0.13;0.10;;;20.70;47.10;;;;;;5048762;28;20544;-46
2023/01/03 13:59:49;;;;;;;0.63;0.10;;;20.70;47.20;;;;;;5048365;28;20148;-45
2023/01/03 14:02:56;;;;;;;0.43;0.10;;;20.70;47.20;;;;;;5048362;28;20475;-48
2023/01/03 14:05:48;;;;;;;2.17;0.28;;;20.70;47.00;;;;;;5048122;28;20064;-49
2023/01/03 14:08:26;;;;;;;0.95;0.17;;;20.70;47.20;;;;;;5048268;28;20047;-50
2023/01/03 14:11:07;;;;;;;2.85;0.10;;;20.70;47.30;;;;;;5048091;28;20041;-47
2023/01/03 14:13:40;;;;;;;0.10;0.05;;;20.70;47.40;;;;;;5047935;28;20076;-47
2023/01/03 14:16:20;;;;;;;0.63;0.10;;;20.70;47.50;;;;;;5048020;28;20044;-48
2023/01/03 14:18:57;;;;;;;5.63;0.40;;;20.70;47.50;;;;;;5048018;28;20048;-46